createdAt,value
2018-08-10T00:02:30.060Z,21.20
2018-08-10T00:05:04.676Z,21.00
2018-08-10T00:07:38.537Z,21.00
2018-08-10T00:10:12.435Z,21.10
2018-08-10T00:12:47.283Z,21.10
2018-08-10T00:15:21.139Z,21.10
2018-08-10T00:17:55.031Z,21.10
2018-08-10T00:20:28.715Z,21.10
2018-08-10T00:23:02.521Z,21.10
2018-08-10T00:25:37.065Z,21.00
2018-08-10T00:28:10.944Z,21.00
2018-08-10T00:30:44.673Z,21.00
2018-08-10T00:33:18.396Z,21.00
2018-08-10T00:35:52.080Z,20.90
2018-08-10T00:38:26.652Z,20.50
2018-08-10T00:41:01.231Z,20.50
2018-08-10T00:43:35.118Z,20.50
2018-08-10T00:46:09.664Z,20.50
2018-08-10T00:48:44.347Z,20.60
2018-08-10T00:51:18.176Z,20.60
2018-08-10T00:53:51.972Z,20.50
2018-08-10T00:56:25.707Z,20.40
2018-08-10T00:59:00.280Z,20.20
2018-08-10T01:01:33.993Z,20.10
2018-08-10T01:04:07.821Z,20.20
2018-08-10T01:06:42.082Z,20.20
2018-08-10T01:09:15.785Z,20.00
2018-08-10T01:11:49.415Z,19.80
2018-08-10T01:14:23.253Z,19.70
2018-08-10T01:16:56.939Z,19.80
2018-08-10T01:19:30.831Z,19.80
2018-08-10T01:22:04.625Z,19.60
2018-08-10T01:24:38.365Z,19.50
2018-08-10T01:27:12.082Z,19.30
2018-08-10T01:29:45.790Z,19.30
2018-08-10T01:32:20.482Z,19.30
2018-08-10T01:34:54.304Z,19.20
2018-08-10T01:37:28.939Z,19.20
2018-08-10T01:40:02.724Z,19.20
2018-08-10T01:42:36.500Z,19.20
2018-08-10T01:45:10.333Z,19.10
2018-08-10T01:47:44.150Z,19.10
2018-08-10T01:50:17.964Z,19.00
2018-08-10T01:52:51.871Z,18.80
2018-08-10T01:55:26.423Z,18.90
2018-08-10T01:58:00.197Z,18.90
2018-08-10T02:00:34.038Z,19.00
2018-08-10T02:03:07.929Z,19.00
2018-08-10T02:05:42.509Z,18.90
2018-08-10T02:08:16.377Z,18.90
2018-08-10T02:10:50.108Z,18.80
2018-08-10T02:13:23.910Z,18.80
2018-08-10T02:15:57.673Z,18.80
2018-08-10T02:18:32.217Z,18.70
2018-08-10T02:21:06.108Z,18.70
2018-08-10T02:23:40.638Z,18.60
2018-08-10T02:26:15.328Z,18.60
2018-08-10T02:28:49.819Z,18.60
2018-08-10T02:31:23.505Z,18.60
2018-08-10T02:33:57.333Z,18.60
2018-08-10T02:36:31.198Z,18.50
2018-08-10T02:39:05.760Z,18.20
2018-08-10T02:41:39.615Z,18.20
2018-08-10T02:44:14.199Z,18.20
2018-08-10T02:46:48.048Z,18.20
2018-08-10T02:49:21.900Z,18.20
2018-08-10T02:51:55.743Z,18.10
2018-08-10T02:54:29.571Z,18.10
2018-08-10T02:57:03.371Z,18.20
2018-08-10T02:59:38.402Z,18.30
2018-08-10T03:02:12.146Z,18.30
2018-08-10T03:04:46.792Z,18.20
2018-08-10T03:07:21.274Z,18.10
2018-08-10T03:09:55.851Z,18.10
2018-08-10T03:12:29.636Z,18.00
2018-08-10T03:15:03.552Z,18.10
2018-08-10T03:17:37.364Z,18.10
2018-08-10T03:20:11.264Z,18.10
2018-08-10T03:22:45.035Z,18.00
2018-08-10T03:25:19.608Z,18.00
2018-08-10T03:27:53.308Z,18.00
2018-08-10T03:30:27.093Z,18.00
2018-08-10T03:33:00.921Z,18.00
2018-08-10T03:35:34.709Z,18.10
2018-08-10T03:38:08.541Z,18.10
2018-08-10T03:40:42.339Z,18.20
2018-08-10T03:43:16.116Z,18.20
2018-08-10T03:45:49.928Z,18.20
2018-08-10T03:48:23.782Z,18.10
2018-08-10T03:50:57.559Z,18.00
2018-08-10T03:53:32.184Z,17.80
2018-08-10T03:56:05.919Z,17.70
2018-08-10T03:58:39.989Z,17.60
2018-08-10T04:01:14.589Z,17.60
2018-08-10T04:03:48.516Z,17.60
2018-08-10T04:06:22.224Z,17.60
2018-08-10T04:08:56.828Z,17.70
2018-08-10T04:11:30.595Z,17.70
2018-08-10T04:14:04.359Z,17.60
2018-08-10T04:16:38.225Z,17.70
2018-08-10T04:19:13.504Z,17.70
2018-08-10T04:21:47.414Z,17.60
2018-08-10T04:24:21.283Z,17.60
2018-08-10T04:26:55.181Z,17.60
2018-08-10T04:29:29.771Z,17.60
2018-08-10T04:32:03.616Z,17.50
2018-08-10T04:34:37.411Z,17.60
2018-08-10T04:37:11.226Z,17.60
2018-08-10T04:39:45.204Z,17.60
2018-08-10T04:42:19.762Z,17.60
2018-08-10T04:44:53.525Z,17.60
2018-08-10T04:47:28.142Z,17.60
2018-08-10T04:50:01.953Z,17.50
2018-08-10T04:52:36.553Z,17.60
2018-08-10T04:55:10.508Z,17.60
2018-08-10T04:57:45.944Z,17.70
2018-08-10T05:00:19.713Z,17.70
2018-08-10T05:02:54.247Z,18.20
2018-08-10T05:05:27.971Z,18.20
2018-08-10T05:08:02.591Z,18.30
2018-08-10T05:10:36.402Z,18.20
2018-08-10T05:13:10.256Z,18.10
2018-08-10T05:15:44.825Z,17.90
2018-08-10T05:18:18.708Z,17.90
2018-08-10T05:20:52.437Z,18.00
2018-08-10T05:23:26.245Z,18.10
2018-08-10T05:26:00.905Z,18.10
2018-08-10T05:28:35.691Z,18.10
2018-08-10T05:31:09.670Z,18.10
2018-08-10T05:33:43.492Z,18.10
2018-08-10T05:36:17.175Z,18.00
2018-08-10T05:38:50.963Z,18.30
2018-08-10T05:41:24.813Z,18.30
2018-08-10T05:43:58.567Z,18.50
2018-08-10T05:46:33.151Z,18.40
2018-08-10T05:49:07.049Z,18.40
2018-08-10T05:51:40.849Z,18.10
2018-08-10T05:54:15.467Z,17.80
2018-08-10T05:56:49.188Z,17.80
2018-08-10T05:59:23.105Z,17.90
2018-08-10T06:01:56.994Z,18.00
2018-08-10T06:04:31.632Z,18.10
2018-08-10T06:07:05.352Z,18.10
2018-08-10T06:09:39.887Z,18.40
2018-08-10T06:12:13.873Z,18.40
2018-08-10T06:14:48.411Z,19.00
2018-08-10T06:17:22.040Z,19.00
2018-08-10T06:19:55.901Z,19.00
2018-08-10T06:22:29.692Z,19.20
2018-08-10T06:25:03.433Z,19.00
2018-08-10T06:27:37.230Z,18.80
2018-08-10T06:30:11.128Z,18.60
2018-08-10T06:32:45.687Z,18.60
2018-08-10T06:35:19.370Z,18.60
2018-08-10T06:37:53.192Z,18.50
2018-08-10T06:40:28.076Z,18.60
2018-08-10T06:43:02.031Z,18.70
2018-08-10T06:45:36.993Z,18.70
2018-08-10T06:48:10.885Z,18.70
2018-08-10T06:50:44.734Z,18.70
2018-08-10T06:53:18.597Z,18.70
2018-08-10T06:55:52.500Z,18.60
2018-08-10T06:58:26.223Z,18.70
2018-08-10T07:01:00.039Z,18.90
2018-08-10T07:03:33.791Z,19.00
2018-08-10T07:06:07.612Z,19.00
2018-08-10T07:08:42.224Z,18.80
2018-08-10T07:11:16.014Z,18.80
2018-08-10T07:13:49.736Z,18.90
2018-08-10T07:16:23.431Z,18.90
2018-08-10T07:18:57.246Z,18.90
2018-08-10T07:21:31.156Z,19.00
2018-08-10T07:24:06.120Z,19.20
2018-08-10T07:26:40.186Z,19.20
2018-08-10T07:29:14.698Z,19.20
2018-08-10T07:31:49.140Z,19.20
2018-08-10T07:34:23.824Z,19.20
2018-08-10T07:36:57.532Z,19.20
2018-08-10T07:39:32.125Z,19.10
2018-08-10T07:42:05.908Z,19.10
2018-08-10T07:44:39.572Z,19.10
2018-08-10T07:47:13.420Z,19.20
2018-08-10T07:49:47.211Z,19.30
2018-08-10T07:52:21.724Z,19.50
2018-08-10T07:54:55.449Z,19.60
2018-08-10T07:57:30.138Z,19.30
2018-08-10T08:00:05.521Z,19.30
2018-08-10T08:02:39.213Z,19.30
2018-08-10T08:05:13.706Z,19.70
2018-08-10T08:07:47.570Z,19.70
2018-08-10T08:10:22.164Z,19.90
2018-08-10T08:12:56.032Z,19.90
2018-08-10T08:15:30.031Z,19.90
2018-08-10T08:18:03.895Z,20.00
2018-08-10T08:20:37.921Z,20.30
2018-08-10T08:23:12.527Z,21.90
2018-08-10T08:25:46.409Z,21.80
2018-08-10T08:28:20.283Z,22.70
2018-08-10T08:30:53.959Z,23.80
2018-08-10T08:33:27.806Z,24.10
2018-08-10T08:36:02.349Z,24.10
2018-08-10T08:38:48.411Z,24.10
2018-08-10T08:41:22.087Z,24.00
2018-08-10T08:44:01.787Z,24.00
2018-08-10T08:46:35.936Z,25.20
2018-08-10T08:49:09.441Z,25.20
2018-08-10T08:51:44.838Z,24.80
2018-08-10T09:07:58.855Z,28.00
2018-08-10T09:10:32.607Z,26.00
2018-08-10T09:13:07.021Z,23.90
2018-08-10T09:15:40.778Z,23.90
2018-08-10T09:18:14.699Z,23.40
2018-08-10T09:20:49.252Z,23.90
2018-08-10T09:23:23.155Z,23.90
2018-08-10T09:25:56.826Z,24.40
2018-08-10T09:28:31.407Z,25.60
2018-08-10T09:31:07.512Z,25.60
2018-08-10T09:33:41.236Z,25.30
2018-08-10T09:36:15.068Z,24.60
2018-08-10T09:38:48.924Z,23.90
2018-08-10T09:41:23.119Z,23.80
2018-08-10T09:43:56.867Z,24.30
2018-08-10T09:46:30.700Z,24.90
2018-08-10T09:49:04.388Z,25.10
2018-08-10T09:51:39.086Z,26.40
2018-08-10T09:54:13.601Z,26.70
2018-08-10T09:56:47.987Z,26.60
2018-08-10T09:59:21.800Z,26.50
2018-08-10T10:01:55.615Z,25.40
2018-08-10T10:04:30.219Z,25.10
2018-08-10T10:07:04.055Z,25.10
2018-08-10T10:09:37.949Z,24.70
2018-08-10T10:12:12.284Z,24.40
2018-08-10T10:14:46.098Z,24.10
2018-08-10T10:17:20.672Z,24.00
2018-08-10T10:19:54.488Z,23.90
2018-08-10T10:22:28.142Z,24.80
2018-08-10T10:25:01.904Z,25.60
2018-08-10T10:27:36.536Z,26.00
2018-08-10T10:30:11.255Z,26.00
2018-08-10T10:32:45.176Z,25.60
2018-08-10T10:35:19.689Z,26.20
2018-08-10T10:37:54.879Z,26.20
2018-08-10T10:40:28.634Z,26.40
2018-08-10T10:43:02.726Z,26.30
2018-08-10T10:45:36.413Z,26.50
2018-08-10T10:48:10.284Z,26.10
2018-08-10T10:50:44.921Z,24.80
2018-08-10T10:53:18.684Z,24.80
2018-08-10T10:55:53.310Z,24.20
2018-08-10T10:58:27.267Z,24.20
2018-08-10T11:01:01.022Z,23.70
2018-08-10T11:03:34.831Z,23.50
2018-08-10T11:06:08.655Z,24.10
2018-08-10T11:08:43.243Z,25.90
2018-08-10T11:11:16.995Z,25.90
2018-08-10T11:13:50.820Z,25.70
2018-08-10T11:16:25.474Z,25.10
2018-08-10T11:18:59.916Z,24.60
2018-08-10T11:21:33.763Z,24.60
2018-08-10T11:24:08.392Z,24.70
2018-08-10T11:26:42.208Z,24.70
2018-08-10T11:29:16.758Z,24.60
2018-08-10T11:31:50.801Z,24.60
2018-08-10T11:34:24.427Z,24.70
2018-08-10T11:36:58.234Z,24.90
2018-08-10T11:39:32.029Z,24.90
2018-08-10T11:42:05.820Z,24.90
2018-08-10T11:44:40.535Z,24.60
2018-08-10T11:47:14.227Z,24.60
2018-08-10T11:49:48.072Z,25.00
2018-08-10T11:52:21.901Z,25.60
2018-08-10T11:54:56.558Z,25.50
2018-08-10T11:57:30.444Z,25.50
2018-08-10T12:00:05.011Z,25.30
2018-08-10T12:02:38.825Z,25.30
2018-08-10T12:05:13.455Z,25.30
2018-08-10T12:07:48.085Z,25.30
2018-08-10T12:10:21.916Z,25.30
2018-08-10T12:12:55.829Z,25.30
2018-08-10T12:15:29.624Z,25.10
2018-08-10T12:18:04.236Z,25.00
2018-08-10T12:20:38.172Z,25.00
2018-08-10T12:23:12.822Z,25.20
2018-08-10T12:25:47.386Z,25.30
2018-08-10T12:28:21.184Z,25.20
2018-08-10T12:30:55.593Z,25.20
2018-08-10T12:33:29.559Z,25.10
2018-08-10T12:36:04.055Z,24.00
2018-08-10T12:38:38.541Z,24.10
2018-08-10T12:41:12.347Z,24.00
2018-08-10T12:43:47.072Z,24.40
2018-08-10T12:46:20.937Z,24.40
2018-08-10T12:48:54.735Z,24.70
2018-08-10T12:51:28.664Z,24.80
2018-08-10T12:54:02.492Z,24.80
2018-08-10T12:56:36.360Z,24.70
2018-08-10T12:59:10.165Z,24.80
2018-08-10T13:01:43.942Z,25.10
2018-08-10T13:04:20.359Z,24.80
2018-08-10T13:06:54.018Z,24.70
2018-08-10T13:09:28.618Z,25.00
2018-08-10T13:12:02.386Z,25.00
2018-08-10T13:14:36.932Z,25.50
2018-08-10T13:17:10.585Z,25.50
2018-08-10T13:19:44.399Z,25.70
2018-08-10T13:22:19.002Z,25.50
2018-08-10T13:24:52.866Z,25.50
2018-08-10T13:27:26.718Z,25.40
2018-08-10T13:30:00.499Z,25.40
2018-08-10T13:32:34.142Z,25.30
2018-08-10T13:35:08.272Z,25.30
2018-08-10T13:37:43.147Z,25.50
2018-08-10T13:40:16.972Z,25.50
2018-08-10T13:42:51.812Z,25.20
2018-08-10T13:45:25.647Z,25.10
2018-08-10T13:47:59.471Z,25.00
2018-08-10T13:50:33.235Z,25.00
2018-08-10T13:53:07.741Z,25.00
2018-08-10T13:55:41.525Z,24.90
2018-08-10T13:58:16.390Z,24.80
2018-08-10T14:00:50.171Z,24.80
2018-08-10T14:03:23.924Z,24.90
2018-08-10T14:05:58.500Z,24.70
2018-08-10T14:08:32.207Z,24.90
2018-08-10T14:11:05.895Z,24.90
2018-08-10T14:13:39.564Z,24.90
2018-08-10T14:16:15.021Z,24.80
2018-08-10T14:18:48.827Z,24.80
2018-08-10T14:21:22.665Z,24.80
2018-08-10T14:23:57.290Z,24.50
2018-08-10T14:26:31.151Z,24.40
2018-08-10T14:29:04.879Z,24.60
2018-08-10T14:31:39.462Z,24.80
2018-08-10T14:34:13.084Z,24.80
2018-08-10T14:36:47.821Z,24.80
2018-08-10T14:39:22.291Z,24.80
2018-08-10T14:41:56.103Z,24.70
2018-08-10T14:44:30.723Z,24.80
2018-08-10T14:47:04.566Z,24.70
2018-08-10T14:49:39.312Z,24.80
2018-08-10T14:52:13.229Z,24.80
2018-08-10T14:54:46.845Z,24.70
2018-08-10T14:57:20.716Z,25.10
2018-08-10T14:59:54.447Z,25.30
2018-08-10T15:02:28.318Z,25.10
2018-08-10T15:05:02.069Z,24.70
2018-08-10T15:07:36.708Z,25.10
2018-08-10T15:10:10.473Z,25.00
2018-08-10T15:12:44.787Z,25.40
2018-08-10T15:15:19.178Z,25.10
2018-08-10T15:17:54.303Z,25.00
2018-08-10T15:20:28.820Z,24.70
2018-08-10T15:23:02.594Z,24.70
2018-08-10T15:25:36.374Z,24.60
2018-08-10T15:28:10.230Z,24.60
2018-08-10T15:30:44.082Z,24.70
2018-08-10T15:33:18.660Z,25.10
2018-08-10T15:35:52.307Z,25.10
2018-08-10T15:38:26.320Z,25.00
2018-08-10T15:41:00.148Z,25.00
2018-08-10T15:43:35.005Z,24.90
2018-08-10T15:46:08.775Z,24.90
2018-08-10T15:48:43.433Z,24.70
2018-08-10T15:51:17.548Z,24.70
2018-08-10T15:53:51.358Z,24.70
2018-08-10T15:56:25.185Z,24.70
2018-08-10T15:58:59.799Z,24.80
2018-08-10T16:01:34.187Z,24.90
2018-08-10T16:04:07.984Z,24.80
2018-08-10T16:06:41.786Z,25.00
2018-08-10T16:09:15.858Z,25.20
2018-08-10T16:11:49.716Z,25.30
2018-08-10T16:14:24.316Z,24.90
2018-08-10T16:16:58.295Z,24.90
2018-08-10T16:19:32.880Z,24.80
2018-08-10T16:22:06.686Z,24.80
2018-08-10T16:24:40.544Z,24.80
2018-08-10T16:27:14.292Z,24.80
2018-08-10T16:29:47.961Z,24.70
2018-08-10T16:32:21.676Z,24.60
2018-08-10T16:34:56.271Z,24.60
2018-08-10T16:37:30.068Z,24.50
2018-08-10T16:40:04.052Z,24.50
2018-08-10T16:42:38.504Z,24.50
2018-08-10T16:45:13.015Z,24.40
2018-08-10T16:47:47.607Z,24.40
2018-08-10T16:50:21.352Z,24.40
2018-08-10T16:52:56.033Z,24.50
2018-08-10T16:55:30.576Z,24.50
2018-08-10T16:58:04.470Z,24.50
2018-08-10T17:00:39.027Z,24.50
2018-08-10T17:03:12.889Z,24.50
2018-08-10T17:05:46.650Z,24.50
2018-08-10T17:08:20.490Z,24.50
2018-08-10T17:10:55.078Z,24.40
2018-08-10T17:13:28.885Z,24.40
2018-08-10T17:16:03.637Z,24.50
2018-08-10T17:18:37.282Z,24.40
2018-08-10T17:21:11.926Z,24.30
2018-08-10T17:23:45.697Z,24.30
2018-08-10T17:26:19.484Z,24.30
2018-08-10T17:28:53.257Z,24.20
2018-08-10T17:31:27.095Z,24.20
2018-08-10T17:34:01.685Z,24.00
2018-08-10T17:36:35.468Z,24.00
2018-08-10T17:39:10.046Z,24.00
2018-08-10T17:41:44.688Z,24.00
2018-08-10T17:44:18.477Z,24.00
2018-08-10T17:46:53.093Z,23.80
2018-08-10T17:49:26.863Z,23.80
2018-08-10T17:52:00.577Z,23.80
2018-08-10T17:54:34.782Z,23.80
2018-08-10T17:57:08.576Z,23.90
2018-08-10T17:59:42.486Z,23.90
2018-08-10T18:02:16.263Z,24.00
2018-08-10T18:04:50.144Z,24.00
2018-08-10T18:07:23.969Z,23.90
2018-08-10T18:09:57.842Z,23.80
2018-08-10T18:12:32.268Z,23.80
2018-08-10T18:15:05.956Z,23.80
2018-08-10T18:17:39.853Z,23.80
2018-08-10T18:20:13.747Z,23.70
2018-08-10T18:22:47.844Z,23.60
2018-08-10T18:25:21.695Z,23.50
2018-08-10T18:27:55.463Z,23.40
2018-08-10T18:30:29.369Z,23.40
2018-08-10T18:33:03.153Z,23.30
2018-08-10T18:35:37.176Z,23.30
2018-08-10T18:38:10.896Z,23.20
2018-08-10T18:40:44.752Z,23.10
2018-08-10T18:43:18.543Z,23.10
2018-08-10T18:45:52.411Z,23.00
2018-08-10T18:48:26.318Z,23.00
2018-08-10T18:51:00.385Z,23.00
2018-08-10T18:53:34.275Z,22.90
2018-08-10T18:56:08.871Z,22.80
2018-08-10T18:58:42.899Z,22.80
2018-08-10T19:01:16.827Z,22.70
2018-08-10T19:03:50.610Z,22.60
2018-08-10T19:06:25.241Z,22.50
2018-08-10T19:08:59.699Z,22.40
2018-08-10T19:11:34.256Z,22.40
2018-08-10T19:14:08.046Z,22.30
2018-08-10T19:16:41.895Z,22.30
2018-08-10T19:19:15.687Z,22.30
2018-08-10T19:21:49.522Z,22.30
2018-08-10T19:24:24.120Z,22.30
2018-08-10T19:26:57.971Z,22.20
2018-08-10T19:29:31.778Z,22.30
2018-08-10T19:32:05.533Z,22.30
2018-08-10T19:34:39.954Z,22.30
2018-08-10T19:37:14.074Z,22.20
2018-08-10T19:39:48.734Z,22.20
2018-08-10T19:42:22.517Z,22.10
2018-08-10T19:44:57.017Z,22.00
2018-08-10T19:47:30.812Z,22.00
2018-08-10T19:50:05.384Z,22.00
2018-08-10T19:52:39.170Z,22.00
2018-08-10T19:55:12.836Z,22.00
2018-08-10T19:57:46.636Z,21.90
2018-08-10T20:00:20.268Z,21.90
2018-08-10T20:02:54.092Z,21.80
2018-08-10T20:05:28.105Z,21.70
2018-08-10T20:08:01.887Z,21.70
2018-08-10T20:10:36.509Z,21.60
2018-08-10T20:13:10.310Z,21.60
2018-08-10T20:15:44.125Z,21.60
2018-08-10T20:18:17.980Z,21.40
2018-08-10T20:20:52.569Z,21.20
2018-08-10T20:23:26.503Z,21.20
2018-08-10T20:26:00.205Z,21.20
2018-08-10T20:28:34.185Z,21.20
2018-08-10T20:31:07.963Z,21.10
2018-08-10T20:33:42.705Z,21.10
2018-08-10T20:36:16.594Z,21.00
2018-08-10T20:38:50.441Z,21.00
2018-08-10T20:41:24.221Z,21.00
2018-08-10T20:43:58.692Z,21.00
2018-08-10T20:46:32.472Z,21.00
2018-08-10T20:49:07.135Z,21.00
2018-08-10T20:51:40.886Z,21.00
2018-08-10T20:54:15.456Z,21.00
2018-08-10T20:56:49.203Z,21.00
2018-08-10T20:59:23.642Z,20.90
2018-08-10T21:01:58.292Z,20.90
2018-08-10T21:04:32.836Z,20.80
2018-08-10T21:07:07.434Z,20.80
2018-08-10T21:09:41.283Z,20.80
2018-08-10T21:12:15.868Z,20.70
2018-08-10T21:14:49.687Z,20.70
2018-08-10T21:17:24.176Z,20.50
2018-08-10T21:19:58.049Z,20.50
2018-08-10T21:22:32.619Z,20.30
2018-08-10T21:25:06.495Z,20.30
2018-08-10T21:27:41.129Z,20.10
2018-08-10T21:30:15.700Z,20.00
2018-08-10T21:32:50.428Z,20.00
2018-08-10T21:35:24.221Z,20.00
2018-08-10T21:37:58.849Z,19.80
2018-08-10T21:40:33.584Z,19.80
2018-08-10T21:43:08.112Z,19.80
2018-08-10T21:45:41.906Z,19.80
2018-08-10T21:48:16.443Z,19.80
2018-08-10T21:50:51.071Z,19.70
2018-08-10T21:53:24.898Z,19.70
2018-08-10T21:55:59.380Z,19.70
2018-08-10T21:58:33.218Z,19.70
2018-08-10T22:01:07.835Z,19.70
2018-08-10T22:03:41.667Z,19.70
2018-08-10T22:06:15.422Z,19.70
2018-08-10T22:08:50.064Z,19.70
2018-08-10T22:11:24.546Z,19.70
2018-08-10T22:13:58.433Z,19.60
2018-08-10T22:19:22.577Z,19.60
2018-08-10T22:21:56.496Z,19.60
2018-08-10T22:24:30.999Z,19.50
2018-08-10T22:27:04.789Z,19.50
2018-08-10T22:29:38.528Z,19.40
2018-08-10T22:32:12.228Z,19.30
2018-08-10T22:34:46.878Z,19.20
2018-08-10T22:37:20.594Z,19.10
2018-08-10T22:39:54.294Z,19.20
2018-08-10T22:42:28.188Z,19.20
2018-08-10T22:45:02.933Z,19.10
2018-08-10T22:47:36.590Z,19.10
2018-08-10T22:50:10.563Z,19.10
2018-08-10T22:52:44.208Z,19.10
2018-08-10T22:55:18.875Z,19.10
2018-08-10T22:57:53.456Z,19.10
2018-08-10T23:00:27.332Z,19.10
2018-08-10T23:03:01.095Z,19.10
2018-08-10T23:05:36.299Z,19.10
2018-08-10T23:08:10.076Z,19.10
2018-08-10T23:10:43.875Z,19.00
2018-08-10T23:13:18.450Z,18.70
2018-08-10T23:15:52.283Z,18.70
2018-08-10T23:18:26.059Z,18.70
2018-08-10T23:21:00.595Z,18.80
2018-08-10T23:23:34.185Z,18.80
2018-08-10T23:26:08.823Z,18.90
2018-08-10T23:28:42.648Z,18.80
2018-08-10T23:31:16.472Z,18.80
2018-08-10T23:33:50.286Z,18.70
2018-08-10T23:36:24.134Z,18.80
2018-08-10T23:38:57.974Z,18.70
2018-08-10T23:41:31.758Z,18.80
2018-08-10T23:44:05.637Z,18.80
2018-08-10T23:46:39.504Z,18.70
2018-08-10T23:49:14.105Z,18.60
2018-08-10T23:51:48.692Z,18.60
2018-08-10T23:54:22.574Z,18.60
2018-08-10T23:56:56.468Z,18.60
2018-08-10T23:59:30.960Z,18.60
